Frisbie, Pennsylvania
Current Conditions -  °F | °C
As of 1:54 AM on Saturday 25 Oct 2014 (Local Time) from KRDG Reporting Station
Clear Clear  
Wind Chill: 52°   Ceiling: Unl
Heat Index: 52°   Visibility: 10mi
Dew Point: 37°   Wind: 3mph
Humidity: 57%   Direction: 270°W
Pressure: 29.91"   Gusts: NA
Location:  40.633°N, 76.068°W
Report Text: KRDG 250554Z AUTO 27003KT 10SM CLR 11/03 A2991 RMK AO2 SLP132 T01110028 10161 20106 51005
Loading
Personal Weather Stations






























Interactive Weather Map
Tropical Storm Tracking
New forecast layout! Learn more

10-Day Weather Forecast

Advertisements
Track Severe Weather on mobile